createdAt,value
2018-05-13T00:02:21.288Z,9.33
2018-05-13T00:04:49.076Z,8.40
2018-05-13T00:07:16.863Z,8.20
2018-05-13T00:09:44.650Z,8.90
2018-05-13T00:12:13.196Z,7.97
2018-05-13T00:14:40.967Z,8.40
2018-05-13T00:17:08.787Z,8.90
2018-05-13T00:19:36.592Z,7.07
2018-05-13T00:22:04.461Z,8.40
2018-05-13T00:24:32.260Z,7.67
2018-05-13T00:27:00.803Z,7.80
2018-05-13T00:29:28.598Z,7.60
2018-05-13T00:31:56.393Z,8.07
2018-05-13T00:34:24.197Z,8.57
2018-05-13T00:36:51.997Z,6.70
2018-05-13T00:39:20.572Z,9.20
2018-05-13T00:41:48.380Z,7.70
2018-05-13T00:44:16.169Z,8.10
2018-05-13T00:46:43.976Z,7.30
2018-05-13T00:49:11.785Z,7.63
2018-05-13T00:51:39.590Z,7.00
2018-05-13T00:54:31.881Z,6.43
2018-05-13T00:56:59.669Z,7.27
2018-05-13T00:59:27.477Z,6.67
2018-05-13T01:01:56.044Z,5.57
2018-05-13T01:04:23.856Z,5.93
2018-05-13T01:06:51.651Z,6.93
2018-05-13T01:09:19.458Z,7.30
2018-05-13T01:11:48.036Z,6.80
2018-05-13T01:14:16.688Z,7.27
2018-05-13T01:16:44.479Z,6.03
2018-05-13T01:19:13.028Z,6.70
2018-05-13T01:21:40.875Z,5.93
2018-05-13T01:24:08.672Z,6.40
2018-05-13T01:26:36.464Z,7.37
2018-05-13T01:29:05.021Z,6.40
2018-05-13T01:31:32.810Z,4.90
2018-05-13T01:34:01.356Z,5.43
2018-05-13T01:36:29.148Z,6.20
2018-05-13T01:38:57.712Z,6.13
2018-05-13T01:41:25.546Z,5.50
2018-05-13T01:43:53.331Z,4.97
2018-05-13T01:46:21.132Z,6.23
2018-05-13T01:48:49.696Z,5.77
2018-05-13T01:51:17.490Z,5.63
2018-05-13T01:53:46.119Z,5.37
2018-05-13T01:56:13.904Z,5.27
2018-05-13T01:58:41.758Z,4.73
2018-05-13T02:01:09.574Z,4.10
2018-05-13T02:03:38.137Z,4.57
2018-05-13T02:06:05.958Z,5.13
2018-05-13T02:08:33.727Z,3.00
2018-05-13T02:11:01.529Z,4.00
2018-05-13T02:13:29.311Z,3.80
2018-05-13T02:15:57.860Z,3.37
2018-05-13T02:18:25.655Z,2.10
2018-05-13T02:20:54.228Z,2.20
2018-05-13T02:23:22.008Z,2.67
2018-05-13T02:25:50.548Z,2.60
2018-05-13T02:28:18.339Z,1.90
2018-05-13T02:30:46.891Z,1.87
2018-05-13T02:33:14.744Z,2.00
2018-05-13T02:35:42.508Z,1.93
2018-05-13T02:38:10.286Z,2.10
2018-05-13T02:40:38.069Z,2.10
2018-05-13T02:43:05.904Z,1.57
2018-05-13T02:45:33.717Z,2.13
2018-05-13T02:48:02.304Z,1.60
2018-05-13T02:50:30.097Z,1.83
2018-05-13T02:52:57.881Z,3.00
2018-05-13T02:55:25.658Z,2.07
2018-05-13T02:57:53.456Z,1.77
2018-05-13T03:00:22.024Z,1.70
2018-05-13T03:02:49.828Z,2.00
2018-05-13T03:05:17.651Z,2.00
2018-05-13T03:07:45.450Z,2.00
2018-05-13T03:10:14.038Z,1.90
2018-05-13T03:12:41.869Z,1.40
2018-05-13T03:15:09.649Z,1.70
2018-05-13T03:17:38.227Z,2.17
2018-05-13T03:20:06.774Z,1.77
2018-05-13T03:22:34.592Z,1.93
2018-05-13T03:25:02.391Z,1.70
2018-05-13T03:27:30.180Z,1.67
2018-05-13T03:29:57.986Z,1.80
2018-05-13T03:32:26.860Z,2.13
2018-05-13T03:34:54.645Z,1.97
2018-05-13T03:37:22.480Z,1.20
2018-05-13T03:39:51.082Z,1.80
2018-05-13T03:42:19.675Z,1.73
2018-05-13T03:44:48.226Z,1.80
2018-05-13T03:47:16.017Z,1.50
2018-05-13T03:49:44.560Z,2.00
2018-05-13T03:52:12.336Z,1.20
2018-05-13T03:54:40.123Z,2.50
2018-05-13T03:57:08.680Z,1.90
2018-05-13T03:59:36.469Z,1.67
2018-05-13T04:02:05.012Z,1.70
2018-05-13T04:04:32.792Z,1.70
2018-05-13T04:07:00.620Z,2.20
2018-05-13T04:09:40.226Z,2.27
2018-05-13T04:12:20.532Z,1.73
2018-05-13T04:15:00.212Z,1.67
2018-05-13T04:17:28.849Z,2.17
2018-05-13T04:19:56.640Z,1.50
2018-05-13T04:22:24.420Z,1.33
2018-05-13T04:24:52.212Z,1.73
2018-05-13T04:27:20.013Z,1.40
2018-05-13T04:29:47.796Z,1.70
2018-05-13T04:32:15.570Z,1.23
2018-05-13T04:34:43.355Z,1.23
2018-05-13T04:37:11.896Z,2.23
2018-05-13T04:39:39.686Z,1.97
2018-05-13T04:42:07.489Z,1.67
2018-05-13T04:44:35.268Z,1.70
2018-05-13T04:47:03.060Z,2.37
2018-05-13T04:49:30.836Z,2.03
2018-05-13T04:51:58.600Z,2.00
2018-05-13T04:54:26.404Z,1.90
2018-05-13T04:56:54.213Z,1.77
2018-05-13T04:59:21.980Z,2.00
2018-05-13T05:01:49.747Z,1.60
2018-05-13T05:04:17.520Z,1.50
2018-05-13T05:06:45.305Z,1.50
2018-05-13T05:09:13.076Z,1.93
2018-05-13T05:11:41.648Z,1.70
2018-05-13T05:14:10.211Z,1.60
2018-05-13T05:16:38.001Z,2.10
2018-05-13T05:19:06.606Z,1.40
2018-05-13T05:21:34.370Z,1.83
2018-05-13T05:24:02.146Z,1.43
2018-05-13T05:26:29.924Z,2.07
2018-05-13T05:28:57.715Z,1.60
2018-05-13T05:31:25.505Z,1.90
2018-05-13T05:33:54.064Z,2.20
2018-05-13T05:36:21.854Z,1.30
2018-05-13T05:38:50.413Z,1.93
2018-05-13T05:41:18.196Z,1.70
2018-05-13T05:43:45.980Z,1.80
2018-05-13T05:46:14.539Z,1.63
2018-05-13T05:48:42.319Z,1.93
2018-05-13T05:51:10.856Z,1.97
2018-05-13T05:53:38.633Z,1.80
2018-05-13T05:56:06.416Z,1.90
2018-05-13T05:58:34.185Z,2.13
2018-05-13T06:01:02.741Z,2.63
2018-05-13T06:03:30.525Z,1.70
2018-05-13T06:05:58.323Z,1.90
2018-05-13T06:08:26.103Z,1.70
2018-05-13T06:10:53.883Z,2.20
2018-05-13T06:13:21.668Z,2.03
2018-05-13T06:15:49.448Z,2.43
2018-05-13T06:18:17.216Z,2.37
2018-05-13T06:20:45.812Z,2.60
2018-05-13T06:23:15.700Z,2.30
2018-05-13T06:25:43.564Z,2.50
2018-05-13T06:28:11.369Z,2.60
2018-05-13T06:30:39.192Z,2.50
2018-05-13T06:33:07.015Z,2.20
2018-05-13T06:35:34.833Z,2.47
2018-05-13T06:38:02.641Z,2.10
2018-05-13T06:40:30.455Z,2.17
2018-05-13T06:42:59.127Z,2.53
2018-05-13T06:45:27.411Z,2.33
2018-05-13T06:47:55.427Z,2.00
2018-05-13T06:50:23.218Z,1.97
2018-05-13T06:52:50.989Z,1.70
2018-05-13T06:55:18.771Z,3.50
2018-05-13T06:57:46.552Z,2.33
2018-05-13T07:00:14.351Z,3.40
2018-05-13T07:02:42.203Z,2.30
2018-05-13T07:05:10.033Z,1.80
2018-05-13T07:07:37.844Z,2.20
2018-05-13T07:10:05.656Z,2.70
2018-05-13T07:12:33.464Z,3.10
2018-05-13T07:15:02.065Z,2.73
2018-05-13T07:17:29.869Z,1.83
2018-05-13T07:19:57.653Z,2.17
2018-05-13T07:22:25.448Z,2.63
2018-05-13T07:24:54.013Z,1.90
2018-05-13T07:27:22.627Z,2.53
2018-05-13T07:29:50.499Z,3.27
2018-05-13T07:32:18.252Z,2.10
2018-05-13T07:34:46.067Z,1.90
2018-05-13T07:37:13.853Z,2.47
2018-05-13T07:39:41.641Z,3.17
2018-05-13T07:42:09.529Z,2.37
2018-05-13T07:44:37.324Z,2.93
2018-05-13T07:47:05.117Z,2.70
2018-05-13T07:49:33.656Z,3.00
2018-05-13T07:52:01.538Z,2.90
2018-05-13T07:54:29.339Z,3.20
2018-05-13T07:56:57.879Z,2.93
2018-05-13T07:59:25.713Z,4.00
2018-05-13T08:01:53.537Z,4.50
2018-05-13T08:04:21.374Z,3.57
2018-05-13T08:06:49.227Z,3.93
2018-05-13T08:09:17.106Z,3.53
2018-05-13T08:11:44.918Z,3.17
2018-05-13T08:14:13.462Z,3.03
2018-05-13T08:16:41.365Z,4.33
2018-05-13T08:19:09.192Z,4.30
2018-05-13T08:21:37.032Z,3.60
2018-05-13T08:24:04.983Z,4.07
2018-05-13T08:26:32.764Z,3.90
2018-05-13T08:29:00.548Z,4.10
2018-05-13T08:31:28.474Z,3.90
2018-05-13T08:33:56.320Z,4.20
2018-05-13T08:36:24.882Z,4.50
2018-05-13T08:38:52.672Z,4.00
2018-05-13T08:41:21.213Z,5.00
2018-05-13T08:43:48.996Z,4.00
2018-05-13T08:46:16.778Z,3.93
2018-05-13T08:48:45.324Z,4.23
2018-05-13T08:51:13.131Z,4.37
2018-05-13T08:53:41.744Z,4.30
2018-05-13T08:56:09.585Z,4.00
2018-05-13T08:58:38.140Z,3.93
2018-05-13T09:01:05.944Z,4.27
2018-05-13T09:03:33.749Z,3.73
2018-05-13T09:06:01.532Z,3.67
2018-05-13T09:08:29.355Z,4.37
2018-05-13T09:10:57.184Z,4.60
2018-05-13T09:13:25.763Z,3.70
2018-05-13T09:15:54.352Z,4.37
2018-05-13T09:18:22.902Z,3.60
2018-05-13T09:20:50.768Z,4.10
2018-05-13T09:23:18.577Z,3.97
2018-05-13T09:25:46.376Z,4.87
2018-05-13T09:28:14.152Z,3.20
2018-05-13T09:30:41.940Z,2.80
2018-05-13T09:33:09.742Z,4.30
2018-05-13T09:35:37.538Z,4.83
2018-05-13T09:38:05.337Z,3.50
2018-05-13T09:40:33.168Z,3.50
2018-05-13T09:43:00.989Z,3.30
2018-05-13T09:45:28.796Z,4.03
2018-05-13T09:47:56.573Z,3.90
2018-05-13T09:50:24.360Z,3.60
2018-05-13T09:52:52.145Z,3.17
2018-05-13T09:55:20.692Z,3.70
2018-05-13T09:57:48.520Z,3.07
2018-05-13T10:00:16.335Z,4.47
2018-05-13T10:02:44.123Z,3.77
2018-05-13T10:05:12.682Z,3.53
2018-05-13T10:07:40.524Z,3.77
2018-05-13T10:10:08.333Z,4.03
2018-05-13T10:12:36.872Z,3.63
2018-05-13T10:15:04.735Z,4.10
2018-05-13T10:17:32.540Z,3.67
2018-05-13T10:20:01.096Z,4.40
2018-05-13T10:22:28.897Z,3.23
2018-05-13T10:24:57.432Z,3.27
2018-05-13T10:27:25.217Z,3.67
2018-05-13T10:29:53.001Z,3.17
2018-05-13T10:32:21.556Z,2.67
2018-05-13T10:34:49.322Z,3.30
2018-05-13T10:37:17.968Z,3.33
2018-05-13T10:39:45.765Z,3.40
2018-05-13T10:42:13.998Z,2.70
2018-05-13T10:44:41.812Z,3.20
2018-05-13T10:47:09.605Z,3.60
2018-05-13T10:49:38.178Z,2.07
2018-05-13T10:52:05.987Z,2.73
2018-05-13T10:54:33.820Z,2.67
2018-05-13T10:57:02.357Z,2.80
2018-05-13T10:59:30.149Z,2.80
2018-05-13T11:01:58.704Z,2.70
2018-05-13T11:04:26.609Z,3.50
2018-05-13T11:06:55.148Z,2.50
2018-05-13T11:09:22.919Z,2.90
2018-05-13T11:11:50.701Z,2.50
2018-05-13T11:14:18.565Z,2.90
2018-05-13T11:16:46.345Z,2.77
2018-05-13T11:19:14.135Z,2.33
2018-05-13T11:21:41.920Z,3.80
2018-05-13T11:24:09.701Z,3.70
2018-05-13T11:26:37.467Z,2.70
2018-05-13T11:29:05.238Z,1.93
2018-05-13T11:31:33.042Z,3.10
2018-05-13T11:34:01.621Z,2.20
2018-05-13T11:36:30.177Z,2.23
2018-05-13T11:38:57.949Z,3.07
2018-05-13T11:41:25.745Z,3.13
2018-05-13T11:43:54.295Z,2.00
2018-05-13T11:46:22.095Z,2.20
2018-05-13T11:48:50.733Z,2.30
2018-05-13T11:51:18.532Z,2.10
2018-05-13T11:53:47.116Z,2.87
2018-05-13T11:56:15.673Z,1.57
2018-05-13T11:58:43.455Z,3.53
2018-05-13T12:01:11.997Z,2.47
2018-05-13T12:03:39.777Z,2.10
2018-05-13T12:06:07.597Z,1.70
2018-05-13T12:08:35.455Z,1.90
2018-05-13T12:11:04.054Z,1.73
2018-05-13T12:13:31.833Z,1.70
2018-05-13T12:15:59.685Z,1.80
2018-05-13T12:18:27.497Z,1.57
2018-05-13T12:20:55.309Z,1.50
2018-05-13T12:23:23.095Z,1.50
2018-05-13T12:25:50.913Z,2.17
2018-05-13T12:28:19.465Z,1.30
2018-05-13T12:30:47.280Z,2.00
2018-05-13T12:33:15.224Z,1.60
2018-05-13T12:35:43.874Z,1.43
2018-05-13T12:38:11.714Z,1.30
2018-05-13T12:40:39.488Z,1.30
2018-05-13T12:43:07.280Z,1.67
2018-05-13T12:45:36.036Z,1.80
2018-05-13T12:48:03.824Z,1.60
2018-05-13T12:50:31.606Z,1.03
2018-05-13T12:52:59.411Z,1.20
2018-05-13T12:55:27.196Z,1.73
2018-05-13T12:57:55.164Z,1.70
2018-05-13T13:00:22.964Z,1.67
2018-05-13T13:02:50.758Z,2.10
2018-05-13T13:05:19.292Z,1.20
2018-05-13T13:07:47.262Z,2.00
2018-05-13T13:10:15.042Z,1.70
2018-05-13T13:12:42.788Z,1.83
2018-05-13T13:15:10.656Z,1.40
2018-05-13T13:17:38.467Z,1.70
2018-05-13T13:20:07.165Z,1.33
2018-05-13T13:22:35.074Z,1.60
2018-05-13T13:25:02.941Z,1.67
2018-05-13T13:27:30.744Z,1.10
2018-05-13T13:29:59.299Z,1.77
2018-05-13T13:32:27.067Z,1.37
2018-05-13T13:34:54.867Z,1.20
2018-05-13T13:37:23.423Z,1.83
2018-05-13T13:39:51.204Z,1.20
2018-05-13T13:42:19.760Z,1.53
2018-05-13T13:44:47.544Z,1.33
2018-05-13T13:47:16.173Z,2.30
2018-05-13T13:49:43.993Z,1.17
2018-05-13T13:52:12.567Z,1.70
2018-05-13T13:54:40.347Z,1.70
2018-05-13T13:57:08.881Z,1.30
2018-05-13T13:59:36.676Z,1.40
2018-05-13T14:02:04.501Z,1.30
2018-05-13T14:04:32.363Z,1.07
2018-05-13T14:07:00.138Z,1.70
2018-05-13T14:09:27.912Z,1.40
2018-05-13T14:11:55.759Z,1.90
2018-05-13T14:14:23.584Z,1.37
2018-05-13T14:16:52.120Z,1.77
2018-05-13T14:19:19.978Z,1.33
2018-05-13T14:21:47.816Z,1.57
2018-05-13T14:24:15.602Z,5.50
2018-05-13T14:26:43.380Z,2.17
2018-05-13T14:29:11.206Z,1.90
2018-05-13T14:31:39.063Z,1.70
2018-05-13T14:34:07.599Z,1.70
2018-05-13T14:36:35.424Z,3.07
2018-05-13T14:39:11.823Z,1.53
2018-05-13T14:41:31.190Z,2.20
2018-05-13T14:43:59.044Z,1.70
2018-05-13T14:46:26.918Z,1.87
2018-05-13T14:48:54.695Z,2.17
2018-05-13T14:51:22.464Z,2.13
2018-05-13T14:53:50.256Z,2.10
2018-05-13T14:56:18.068Z,2.30
2018-05-13T14:58:45.853Z,2.17
2018-05-13T15:01:13.615Z,2.63
2018-05-13T15:03:41.509Z,1.83
2018-05-13T15:06:09.298Z,2.10
2018-05-13T15:08:37.121Z,1.70
2018-05-13T15:11:05.116Z,2.20
2018-05-13T15:13:32.934Z,2.53
2018-05-13T15:16:00.702Z,1.70
2018-05-13T15:18:28.483Z,1.90
2018-05-13T15:20:56.284Z,2.80
2018-05-13T15:23:24.848Z,2.03
2018-05-13T15:25:52.738Z,1.70
2018-05-13T15:28:21.280Z,2.80
2018-05-13T15:30:49.056Z,2.00
2018-05-13T15:33:16.840Z,3.33
2018-05-13T15:35:45.381Z,1.83
2018-05-13T15:38:13.187Z,2.33
2018-05-13T15:40:41.756Z,1.67
2018-05-13T15:43:09.712Z,1.60
2018-05-13T15:45:38.969Z,2.50
2018-05-13T15:48:06.754Z,2.00
2018-05-13T15:50:34.532Z,1.73
2018-05-13T15:53:02.313Z,2.17
2018-05-13T15:55:30.097Z,2.10
2018-05-13T15:57:58.648Z,2.10
2018-05-13T16:00:26.421Z,2.43
2018-05-13T16:02:54.228Z,2.00
2018-05-13T16:05:22.010Z,1.30
2018-05-13T16:07:49.775Z,1.80
2018-05-13T16:10:17.591Z,1.50
2018-05-13T16:12:45.411Z,1.23
2018-05-13T16:15:13.189Z,2.07
2018-05-13T16:17:41.021Z,2.00
2018-05-13T16:20:08.821Z,1.90
2018-05-13T16:22:36.608Z,1.40
2018-05-13T16:25:04.450Z,2.30
2018-05-13T16:27:32.264Z,2.10
2018-05-13T16:30:00.887Z,1.87
2018-05-13T16:32:28.752Z,2.00
2018-05-13T16:34:56.580Z,1.83
2018-05-13T16:37:25.133Z,1.50
2018-05-13T16:39:52.911Z,1.67
2018-05-13T16:42:20.684Z,1.33
2018-05-13T16:44:49.300Z,2.17
2018-05-13T16:47:17.132Z,1.93
2018-05-13T16:49:44.923Z,1.50
2018-05-13T16:52:12.744Z,1.60
2018-05-13T16:54:40.552Z,1.70
2018-05-13T16:57:08.443Z,1.40
2018-05-13T16:59:36.281Z,1.90
2018-05-13T17:02:04.124Z,3.30
2018-05-13T17:04:32.676Z,3.07
2018-05-13T17:07:00.454Z,7.10
2018-05-13T17:09:28.331Z,2.00
2018-05-13T17:11:56.124Z,1.97
2018-05-13T17:14:23.928Z,2.73
2018-05-13T17:16:51.713Z,3.23
2018-05-13T17:19:19.487Z,2.10
2018-05-13T17:21:48.044Z,1.60
2018-05-13T17:24:15.845Z,2.40
2018-05-13T17:26:44.400Z,3.53
2018-05-13T17:29:12.184Z,1.97
2018-05-13T17:31:40.015Z,1.33
2018-05-13T17:34:07.899Z,1.80
2018-05-13T17:36:35.649Z,2.00
2018-05-13T17:39:03.608Z,2.17
2018-05-13T17:41:31.382Z,3.33
2018-05-13T17:43:59.162Z,4.20
2018-05-13T17:46:26.968Z,3.10
2018-05-13T17:48:54.790Z,1.70
2018-05-13T17:51:22.601Z,1.90
2018-05-13T17:53:50.388Z,2.77
2018-05-13T17:56:18.172Z,2.10
2018-05-13T17:58:45.971Z,1.30
2018-05-13T18:01:14.542Z,1.50
2018-05-13T18:03:42.327Z,2.40
2018-05-13T18:06:10.872Z,2.50
2018-05-13T18:08:38.649Z,2.63
2018-05-13T18:11:06.468Z,1.90
2018-05-13T18:13:34.244Z,1.93
2018-05-13T18:16:02.056Z,1.90
2018-05-13T18:18:30.659Z,2.00
2018-05-13T18:20:58.481Z,1.93
2018-05-13T18:23:26.334Z,2.57
2018-05-13T18:25:54.149Z,2.00
2018-05-13T18:28:22.705Z,1.90
2018-05-13T18:30:50.487Z,1.97
2018-05-13T18:33:19.165Z,1.43
2018-05-13T18:35:47.017Z,2.10
2018-05-13T18:38:14.797Z,2.50
2018-05-13T18:40:42.619Z,2.20
2018-05-13T18:43:10.462Z,3.20
2018-05-13T18:45:38.351Z,2.10
2018-05-13T18:48:06.187Z,1.50
2018-05-13T18:50:34.007Z,1.80
2018-05-13T18:53:01.785Z,1.90
2018-05-13T18:55:29.582Z,2.30
2018-05-13T18:57:57.388Z,1.93
2018-05-13T19:00:25.209Z,2.40
2018-05-13T19:02:53.001Z,2.03
2018-05-13T19:05:20.822Z,1.40
2018-05-13T19:07:48.682Z,2.33
2018-05-13T19:10:17.233Z,1.60
2018-05-13T19:12:45.028Z,1.97
2018-05-13T19:15:13.588Z,1.93
2018-05-13T19:17:41.420Z,2.33
2018-05-13T19:20:10.044Z,2.03
2018-05-13T19:22:37.960Z,2.77
2018-05-13T19:25:05.828Z,2.10
2018-05-13T19:27:33.656Z,2.33
2018-05-13T19:30:01.464Z,2.83
2018-05-13T19:32:29.249Z,2.30
2018-05-13T19:34:57.056Z,2.03
2018-05-13T19:37:25.679Z,2.10
2018-05-13T19:39:53.505Z,2.10
2018-05-13T19:42:22.069Z,1.53
2018-05-13T19:44:49.929Z,2.17
2018-05-13T19:47:17.772Z,2.20
2018-05-13T19:49:45.590Z,2.50
2018-05-13T19:52:14.155Z,3.13
2018-05-13T19:54:41.979Z,2.60
2018-05-13T19:57:10.539Z,2.40
2018-05-13T19:59:41.193Z,3.00
2018-05-13T20:02:08.986Z,2.33
2018-05-13T20:04:36.911Z,2.53
2018-05-13T20:07:05.487Z,2.10
2018-05-13T20:09:33.398Z,2.20
2018-05-13T20:12:01.140Z,2.50
2018-05-13T20:14:28.943Z,2.10
2018-05-13T20:16:56.759Z,2.47
2018-05-13T20:19:24.573Z,2.60
2018-05-13T20:21:52.429Z,2.27
2018-05-13T20:24:22.059Z,2.57
2018-05-13T20:26:51.540Z,2.13
2018-05-13T20:29:19.343Z,2.00
2018-05-13T20:31:47.973Z,2.20
2018-05-13T20:34:15.798Z,2.53
2018-05-13T20:36:46.392Z,2.17
2018-05-13T20:39:15.297Z,2.60
2018-05-13T20:41:43.125Z,3.07
2018-05-13T20:44:10.927Z,2.00
2018-05-13T20:46:39.490Z,2.13
2018-05-13T20:49:07.388Z,2.30
2018-05-13T20:51:35.170Z,2.00
2018-05-13T20:54:02.980Z,2.10
2018-05-13T20:56:30.809Z,2.07
2018-05-13T20:58:58.600Z,2.10
2018-05-13T21:01:26.444Z,1.90
2018-05-13T21:03:54.215Z,1.77
2018-05-13T21:06:21.991Z,2.17
2018-05-13T21:08:49.880Z,1.83
2018-05-13T21:11:17.684Z,2.73
2018-05-13T21:13:46.265Z,2.37
2018-05-13T21:16:14.827Z,1.77
2018-05-13T21:18:42.644Z,1.90
2018-05-13T21:21:10.533Z,1.77
2018-05-13T21:23:38.333Z,2.00
2018-05-13T21:26:06.892Z,1.90
2018-05-13T21:28:34.707Z,1.80
2018-05-13T21:31:02.525Z,1.70
2018-05-13T21:33:30.328Z,1.60
2018-05-13T21:35:58.876Z,1.53
2018-05-13T21:38:26.662Z,2.17
2018-05-13T21:40:55.298Z,1.20
2018-05-13T21:43:23.072Z,1.47
2018-05-13T21:45:50.879Z,2.33
2018-05-13T21:48:19.459Z,1.93
2018-05-13T21:50:48.049Z,1.67
2018-05-13T21:53:16.644Z,2.23
2018-05-13T21:55:44.451Z,1.60
2018-05-13T21:58:12.218Z,1.80
2018-05-13T22:00:40.016Z,1.60
2018-05-13T22:03:08.600Z,1.60
2018-05-13T22:05:37.152Z,1.60
2018-05-13T22:08:04.944Z,1.63
2018-05-13T22:10:33.528Z,2.40
2018-05-13T22:13:02.074Z,1.50
2018-05-13T22:15:31.166Z,1.57
2018-05-13T22:17:58.933Z,1.27
2018-05-13T22:20:27.561Z,1.23
2018-05-13T22:22:56.107Z,1.00
2018-05-13T22:25:23.895Z,1.03
2018-05-13T22:27:52.440Z,1.73
2018-05-13T22:30:21.173Z,1.00
2018-05-13T22:32:50.468Z,1.53
2018-05-13T22:35:19.051Z,1.57
2018-05-13T22:37:47.604Z,1.50
2018-05-13T22:40:15.371Z,1.60
2018-05-13T22:42:43.187Z,1.50
2018-05-13T22:45:10.984Z,1.70
2018-05-13T22:47:38.782Z,1.37
2018-05-13T22:50:06.600Z,1.23
2018-05-13T22:52:34.472Z,1.80
2018-05-13T22:55:02.245Z,1.20
2018-05-13T22:57:30.022Z,1.40
2018-05-13T22:59:57.806Z,1.07
2018-05-13T23:02:26.358Z,1.30
2018-05-13T23:04:54.137Z,1.47
2018-05-13T23:07:21.998Z,1.70
2018-05-13T23:09:49.779Z,1.17
2018-05-13T23:12:17.596Z,1.63
2018-05-13T23:14:45.487Z,1.50
2018-05-13T23:17:13.344Z,1.87
2018-05-13T23:19:41.211Z,1.20
2018-05-13T23:22:09.175Z,1.70
2018-05-13T23:24:37.023Z,1.43
2018-05-13T23:27:04.815Z,1.60
2018-05-13T23:29:32.587Z,1.63
2018-05-13T23:32:00.363Z,1.40
2018-05-13T23:34:28.209Z,1.33
2018-05-13T23:36:55.973Z,1.40
2018-05-13T23:39:23.746Z,1.60
2018-05-13T23:41:51.515Z,1.43
2018-05-13T23:44:19.305Z,1.17
2018-05-13T23:46:47.896Z,1.90
2018-05-13T23:49:16.474Z,1.73
2018-05-13T23:51:45.057Z,1.20
2018-05-13T23:54:12.853Z,1.20
2018-05-13T23:56:40.692Z,1.30
2018-05-13T23:59:09.251Z,1.70
